Terminal Aerodrome Forecast
Issued by NWS

Home | Current Version | Previous Version | Text Only | Print | Product List | Glossary On
Versions: 1 2 3 4 5 6 7 8 9 10 11 12 13 14 15 16 17 18 19 20 21 22 23 24 25
455
FTUS42 KMHX 312341 AAE
TAFOAJ
TAF AMD
KOAJ 312341Z 0100/0124 VRB04KT P6SM VCSH SCT025 BKN050
     FM010400 VRB04KT 6SM BR VCSH OVC025
     FM010700 VRB04KT 5SM BR VCSH OVC007
     FM011400 02005KT P6SM OVC015
     FM011600 03006KT P6SM OVC035
     FM011800 05005KT 6SM SHRA BKN045
      AMD LTD TO CLD VIS AND WIND=

USA.gov is the U.S. government's official web portal to all federal, state and local government web resources and services.